createdAt,value
2022-09-20T00:01:25.380Z,9.47
2022-09-20T00:03:54.618Z,9.49
2022-09-20T00:06:23.891Z,9.43
2022-09-20T00:08:51.345Z,9.52
2022-09-20T00:11:32.041Z,9.51
2022-09-20T00:14:01.022Z,9.53
2022-09-20T00:16:32.993Z,9.51
2022-09-20T00:19:03.979Z,9.59
2022-09-20T00:21:32.726Z,9.60
2022-09-20T00:24:00.076Z,9.61
2022-09-20T00:26:27.769Z,9.63
2022-09-20T00:28:54.928Z,9.68
2022-09-20T00:31:21.971Z,9.60
2022-09-20T00:34:07.305Z,9.52
2022-09-20T00:36:34.195Z,9.51
2022-09-20T00:39:03.139Z,9.48
2022-09-20T00:41:31.392Z,9.42
2022-09-20T00:44:00.261Z,9.38
2022-09-20T00:46:35.898Z,9.42
2022-09-20T00:49:18.637Z,9.35
2022-09-20T00:51:47.374Z,9.37
2022-09-20T00:54:20.361Z,9.38
2022-09-20T00:56:48.745Z,9.35
2022-09-20T00:59:22.738Z,9.35
2022-09-20T01:01:56.301Z,9.40
2022-09-20T01:04:25.474Z,9.39
2022-09-20T01:06:54.843Z,9.44
2022-09-20T01:09:21.470Z,9.43
2022-09-20T01:11:50.624Z,9.46
2022-09-20T01:14:20.146Z,9.48
2022-09-20T01:16:46.853Z,9.46
2022-09-20T01:19:56.700Z,9.46
2022-09-20T01:22:44.004Z,9.48
2022-09-20T01:25:14.873Z,9.46
2022-09-20T01:27:47.298Z,9.46
2022-09-20T01:30:18.564Z,9.48
2022-09-20T01:33:08.742Z,9.49
2022-09-20T01:35:36.966Z,9.44
2022-09-20T01:38:42.101Z,9.48
2022-09-20T01:41:23.826Z,9.43
2022-09-20T01:44:15.609Z,9.43
2022-09-20T01:46:44.001Z,9.48
2022-09-20T01:49:55.426Z,9.43
2022-09-20T01:53:10.158Z,9.50
2022-09-20T01:56:27.745Z,9.53
2022-09-20T01:59:24.328Z,9.56
2022-09-20T02:22:48.958Z,9.26
2022-09-20T02:25:35.538Z,9.34
2022-09-20T03:14:02.865Z,9.24
2022-09-20T03:16:40.301Z,9.14
2022-09-20T03:19:48.936Z,9.01
2022-09-20T03:22:39.344Z,8.97
2022-09-20T03:25:33.204Z,8.99
2022-09-20T03:28:22.817Z,8.91
2022-09-20T03:31:33.972Z,8.85
2022-09-20T03:34:39.487Z,8.86
2022-09-20T03:37:45.249Z,8.88
2022-09-20T03:40:46.338Z,8.95
2022-09-20T03:43:37.950Z,8.93
2022-09-20T03:46:29.152Z,8.90
2022-09-20T03:49:19.621Z,8.89
2022-09-20T03:52:27.385Z,8.92
2022-09-20T03:55:10.644Z,8.84
2022-09-20T03:57:45.966Z,8.80
2022-09-20T04:00:49.461Z,8.82
2022-09-20T04:03:36.113Z,8.78
2022-09-20T04:06:43.698Z,8.78
2022-09-20T04:09:51.463Z,8.74
2022-09-20T04:13:10.250Z,8.77
2022-09-20T04:16:13.731Z,8.78
2022-09-20T04:19:14.268Z,8.82
2022-09-20T04:21:58.024Z,8.85
2022-09-20T04:25:16.778Z,8.85
2022-09-20T04:27:50.360Z,8.86
2022-09-20T04:30:24.339Z,8.82
2022-09-20T04:33:23.460Z,8.79
2022-09-20T04:36:28.436Z,8.80
2022-09-20T04:39:05.044Z,8.78
2022-09-20T04:42:30.132Z,8.72
2022-09-20T04:45:51.526Z,8.64
2022-09-20T04:48:59.799Z,8.48
2022-09-20T04:52:00.749Z,8.47
2022-09-20T04:54:55.196Z,8.42
2022-09-20T04:57:58.348Z,8.46
2022-09-20T05:00:31.139Z,8.44
2022-09-20T05:03:55.841Z,8.54
2022-09-20T05:07:23.912Z,8.59
2022-09-20T05:10:48.215Z,8.62
2022-09-20T05:14:05.559Z,8.66
2022-09-20T05:16:50.902Z,8.75
2022-09-20T05:19:46.514Z,8.80
2022-09-20T05:22:38.667Z,8.80
2022-09-20T05:25:47.522Z,8.88
2022-09-20T05:28:25.546Z,8.92
2022-09-20T05:31:16.653Z,8.90
2022-09-20T05:34:25.656Z,8.88
2022-09-20T05:37:13.636Z,8.99
2022-09-20T05:40:13.877Z,9.07
2022-09-20T05:42:55.660Z,9.08
2022-09-20T05:46:10.536Z,9.09
2022-09-20T05:49:02.789Z,9.02
2022-09-20T05:52:08.044Z,9.12
2022-09-20T05:55:20.868Z,9.15
2022-09-20T05:58:16.155Z,9.18
2022-09-20T06:00:48.918Z,9.16
2022-09-20T06:03:37.079Z,9.21
2022-09-20T06:06:32.384Z,9.22
2022-09-20T06:09:21.013Z,9.24
2022-09-20T06:12:25.273Z,9.37
2022-09-20T06:15:01.967Z,9.33
2022-09-20T06:17:38.597Z,9.38
2022-09-20T06:20:24.555Z,9.44
2022-09-20T06:22:54.844Z,9.43
2022-09-20T06:25:59.697Z,9.47
2022-09-20T06:28:42.860Z,9.54
2022-09-20T06:31:11.339Z,9.52
2022-09-20T06:33:47.862Z,9.47
2022-09-20T06:36:59.608Z,9.52
2022-09-20T06:40:40.368Z,9.45
2022-09-20T06:43:07.056Z,9.49
2022-09-20T06:45:33.682Z,9.54
2022-09-20T06:48:00.584Z,9.53
2022-09-20T06:50:27.553Z,9.60
2022-09-20T06:52:57.314Z,9.60
2022-09-20T06:55:45.547Z,9.68
2022-09-20T06:58:12.980Z,9.72
2022-09-20T07:00:42.537Z,9.76
2022-09-20T07:03:09.305Z,9.86
2022-09-20T07:05:36.296Z,9.91
2022-09-20T07:08:03.248Z,9.91
2022-09-20T07:10:30.340Z,10.06
2022-09-20T07:13:01.827Z,10.24
2022-09-20T07:15:31.398Z,10.35
2022-09-20T07:17:57.952Z,10.39
2022-09-20T07:20:24.841Z,10.34
2022-09-20T07:22:52.351Z,10.24
2022-09-20T07:25:19.111Z,10.16
2022-09-20T07:27:46.935Z,10.15
2022-09-20T07:30:15.021Z,10.16
2022-09-20T07:32:41.967Z,10.03
2022-09-20T07:35:09.851Z,9.98
2022-09-20T07:37:37.326Z,10.11
2022-09-20T07:40:05.248Z,10.00
2022-09-20T07:42:32.162Z,9.99
2022-09-20T07:44:59.416Z,9.94
2022-09-20T07:47:27.909Z,10.02
2022-09-20T07:49:55.375Z,10.10
2022-09-20T07:52:21.981Z,10.20
2022-09-20T07:54:49.955Z,10.28
2022-09-20T07:57:16.951Z,10.23
2022-09-20T07:59:43.736Z,10.28
2022-09-20T08:02:19.220Z,10.22
2022-09-20T08:04:45.832Z,10.23
2022-09-20T08:07:12.751Z,10.02
2022-09-20T08:09:39.504Z,9.95
2022-09-20T08:14:55.302Z,10.08
2022-09-20T08:17:21.891Z,10.07
2022-09-20T08:19:48.578Z,10.07
2022-09-20T08:22:15.332Z,10.00
2022-09-20T08:24:42.542Z,9.62
2022-09-20T08:27:09.100Z,9.23
2022-09-20T08:29:35.587Z,8.89
2022-09-20T08:32:03.377Z,8.68
2022-09-20T08:34:30.906Z,8.67
2022-09-20T08:36:57.437Z,8.65
2022-09-20T08:42:34.920Z,8.79
2022-09-20T08:45:33.882Z,8.99
2022-09-20T08:48:05.654Z,9.20
2022-09-20T08:50:34.399Z,9.44
2022-09-20T08:53:05.968Z,9.70
2022-09-20T08:55:37.378Z,9.92
2022-09-20T08:58:08.525Z,10.23
2022-09-20T09:00:37.184Z,10.49
2022-09-20T09:03:12.145Z,10.75
2022-09-20T09:05:45.937Z,10.90
2022-09-20T09:08:22.008Z,11.09
2022-09-20T09:11:02.148Z,11.10
2022-09-20T09:13:34.721Z,11.28
2022-09-20T09:16:09.949Z,11.32
2022-09-20T09:18:40.790Z,11.26
2022-09-20T09:21:12.174Z,11.39
2022-09-20T09:23:42.392Z,11.36
2022-09-20T09:26:21.810Z,11.36
2022-09-20T09:29:20.761Z,11.41
2022-09-20T09:31:50.040Z,11.34
2022-09-20T09:34:30.626Z,11.24
2022-09-20T09:36:58.359Z,11.26
2022-09-20T09:39:31.018Z,11.06
2022-09-20T09:42:01.699Z,10.93
2022-09-20T09:44:33.806Z,10.91
2022-09-20T09:47:00.456Z,10.89
2022-09-20T09:49:36.034Z,10.88
2022-09-20T09:52:17.780Z,10.85
2022-09-20T09:54:50.613Z,10.88
2022-09-20T09:58:05.963Z,10.94
2022-09-20T10:00:35.803Z,11.29
2022-09-20T10:03:55.003Z,11.58
2022-09-20T10:06:50.510Z,11.82
2022-09-20T10:09:53.909Z,12.21
2022-09-20T10:12:26.341Z,12.28
2022-09-20T10:15:11.687Z,12.43
2022-09-20T10:18:19.647Z,12.46
2022-09-20T10:21:25.793Z,12.52
2022-09-20T10:24:04.278Z,12.39
2022-09-20T10:26:53.454Z,12.33
2022-09-20T10:29:27.773Z,12.27
2022-09-20T10:32:31.553Z,12.17
2022-09-20T10:35:26.439Z,11.91
2022-09-20T10:38:27.761Z,11.89
2022-09-20T10:41:31.657Z,11.82
2022-09-20T10:44:40.060Z,11.63
2022-09-20T10:47:20.475Z,11.47
2022-09-20T10:50:29.272Z,11.49
2022-09-20T10:53:43.627Z,11.62
2022-09-20T10:56:33.551Z,11.53
2022-09-20T10:59:22.541Z,11.46
2022-09-20T11:02:18.225Z,11.73
2022-09-20T11:05:42.088Z,11.92
2022-09-20T11:08:19.978Z,12.04
2022-09-20T11:11:03.050Z,11.84
2022-09-20T11:13:58.295Z,11.62
2022-09-20T11:16:47.885Z,11.53
2022-09-20T11:19:26.961Z,11.39
2022-09-20T11:22:13.225Z,11.39
2022-09-20T11:24:57.942Z,11.29
2022-09-20T11:27:32.042Z,11.30
2022-09-20T11:30:19.254Z,11.37
2022-09-20T11:33:41.647Z,11.46
2022-09-20T11:36:15.486Z,11.16
2022-09-20T11:38:52.887Z,11.19
2022-09-20T11:41:31.062Z,11.12
2022-09-20T11:44:10.150Z,10.95
2022-09-20T11:47:26.604Z,10.85
2022-09-20T11:54:04.895Z,10.58
2022-09-20T11:59:41.043Z,10.19
2022-09-20T12:13:08.482Z,10.11
2022-09-20T12:15:39.798Z,10.07
2022-09-20T12:27:49.130Z,10.32
2022-09-20T12:30:19.444Z,10.33
2022-09-20T12:32:52.128Z,10.51
2022-09-20T12:35:59.334Z,10.64
2022-09-20T12:38:33.092Z,10.70
2022-09-20T12:41:13.051Z,10.81
2022-09-20T12:43:57.199Z,10.91
2022-09-20T12:46:51.432Z,11.00
2022-09-20T12:49:50.224Z,10.96
2022-09-20T12:52:51.892Z,10.83
2022-09-20T12:55:30.022Z,10.78
2022-09-20T12:58:28.636Z,10.77
2022-09-20T13:01:29.533Z,10.92
2022-09-20T13:04:40.707Z,11.10
2022-09-20T13:07:40.076Z,11.21
2022-09-20T13:10:30.186Z,11.31
2022-09-20T13:13:04.762Z,11.32
2022-09-20T13:15:33.193Z,11.43
2022-09-20T13:18:02.187Z,11.51
2022-09-20T13:20:34.721Z,11.49
2022-09-20T13:23:03.875Z,11.41
2022-09-20T13:25:32.987Z,11.30
2022-09-20T13:28:37.388Z,11.22
2022-09-20T13:31:26.722Z,11.09
2022-09-20T13:33:54.066Z,11.11
2022-09-20T13:36:29.984Z,11.03
2022-09-20T13:38:58.301Z,10.95
2022-09-20T13:41:29.201Z,10.89
2022-09-20T13:43:57.299Z,10.83
2022-09-20T13:46:34.165Z,10.83
2022-09-20T13:49:17.691Z,10.75
2022-09-20T13:51:44.265Z,10.75
2022-09-20T13:54:18.073Z,10.73
2022-09-20T13:56:44.897Z,10.71
2022-09-20T13:59:19.355Z,10.80
2022-09-20T14:01:52.952Z,10.88
2022-09-20T14:04:25.705Z,10.99
2022-09-20T14:06:55.108Z,11.01
2022-09-20T14:09:28.811Z,10.81
2022-09-20T14:11:56.431Z,10.68
2022-09-20T14:14:24.518Z,10.51
2022-09-20T14:16:53.447Z,10.35
2022-09-20T14:19:23.559Z,10.29
2022-09-20T14:21:50.369Z,10.12
2022-09-20T14:24:37.599Z,10.01
2022-09-20T14:27:05.995Z,9.92
2022-09-20T14:29:41.149Z,9.84
2022-09-20T14:32:45.130Z,9.64
2022-09-20T14:35:20.435Z,9.59
2022-09-20T14:37:53.301Z,9.67
2022-09-20T14:40:26.442Z,9.57
2022-09-20T14:42:57.260Z,9.78
2022-09-20T14:45:43.228Z,9.93
2022-09-20T14:48:37.656Z,10.21
2022-09-20T14:51:36.510Z,10.27
2022-09-20T14:54:30.003Z,10.28
2022-09-20T14:56:59.469Z,10.30
2022-09-20T14:59:36.757Z,10.38
2022-09-20T15:02:15.708Z,10.30
2022-09-20T15:04:54.275Z,10.32
2022-09-20T15:07:21.318Z,10.32
2022-09-20T15:09:48.610Z,10.43
2022-09-20T15:12:17.944Z,10.50
2022-09-20T15:14:45.023Z,10.64
2022-09-20T15:17:21.863Z,10.74
2022-09-20T15:19:49.339Z,10.70
2022-09-20T15:22:16.516Z,10.68
2022-09-20T15:24:43.180Z,10.77
2022-09-20T15:27:13.682Z,10.76
2022-09-20T15:29:40.446Z,10.68
2022-09-20T15:32:09.082Z,10.69
2022-09-20T15:34:35.689Z,10.55
2022-09-20T15:37:02.266Z,10.49
2022-09-20T15:39:28.879Z,10.46
2022-09-20T15:41:55.621Z,10.41
2022-09-20T15:44:22.266Z,10.33
2022-09-20T15:46:50.839Z,10.30
2022-09-20T15:49:17.664Z,10.25
2022-09-20T15:51:46.328Z,10.21
2022-09-20T15:54:14.763Z,10.17
2022-09-20T15:56:42.042Z,10.24
2022-09-20T15:59:11.274Z,10.27
2022-09-20T16:01:40.145Z,10.17
2022-09-20T16:04:12.438Z,10.07
2022-09-20T16:06:41.371Z,10.06
2022-09-20T16:09:08.240Z,10.08
2022-09-20T16:11:35.702Z,10.14
2022-09-20T16:14:02.799Z,10.19
2022-09-20T16:16:36.112Z,10.23
2022-09-20T16:19:18.070Z,10.22
2022-09-20T16:21:55.114Z,10.21
2022-09-20T16:24:28.985Z,10.26
2022-09-20T16:26:56.339Z,10.26
2022-09-20T16:29:25.050Z,10.28
2022-09-20T16:31:53.889Z,10.21
2022-09-20T16:34:29.688Z,10.22
2022-09-20T16:37:01.334Z,10.16
2022-09-20T16:39:29.073Z,10.16
2022-09-20T16:41:57.967Z,9.99
2022-09-20T16:44:24.642Z,9.89
2022-09-20T16:46:51.369Z,9.93
2022-09-20T16:49:18.078Z,9.94
2022-09-20T16:51:46.293Z,9.97
2022-09-20T16:54:14.933Z,10.04
2022-09-20T16:56:46.409Z,9.96
2022-09-20T16:59:15.644Z,9.96
2022-09-20T17:01:43.156Z,9.93
2022-09-20T17:04:10.718Z,9.91
2022-09-20T17:06:38.913Z,9.83
2022-09-20T17:09:07.146Z,9.74
2022-09-20T17:11:36.767Z,9.73
2022-09-20T17:14:04.906Z,9.69
2022-09-20T17:16:34.813Z,9.58
2022-09-20T17:19:07.430Z,9.52
2022-09-20T17:21:35.990Z,9.47
2022-09-20T17:24:05.083Z,9.45
2022-09-20T17:26:33.279Z,9.50
2022-09-20T17:29:05.749Z,9.49
2022-09-20T17:31:37.817Z,9.43
2022-09-20T17:34:07.693Z,9.42
2022-09-20T17:36:39.096Z,9.44
2022-09-20T17:39:06.701Z,9.50
2022-09-20T17:41:37.559Z,9.51
2022-09-20T17:44:18.052Z,9.54
2022-09-20T17:46:58.412Z,9.54
2022-09-20T17:49:28.461Z,9.44
2022-09-20T17:51:57.171Z,9.42
2022-09-20T17:54:24.650Z,9.35
2022-09-20T17:56:56.986Z,9.33
2022-09-20T17:59:24.568Z,9.34
2022-09-20T18:01:51.881Z,9.36
2022-09-20T18:04:20.811Z,9.36
2022-09-20T18:06:49.492Z,9.38
2022-09-20T18:09:21.532Z,9.37
2022-09-20T18:11:52.215Z,9.30
2022-09-20T18:14:35.647Z,9.24
2022-09-20T18:17:05.875Z,9.29
2022-09-20T18:19:33.994Z,9.28
2022-09-20T18:22:04.169Z,9.23
2022-09-20T18:24:31.255Z,9.28
2022-09-20T18:26:58.051Z,9.29
2022-09-20T18:29:25.103Z,9.28
2022-09-20T18:31:54.461Z,9.31
2022-09-20T18:34:23.164Z,9.30
2022-09-20T18:36:55.595Z,9.25
2022-09-20T18:39:26.257Z,9.20
2022-09-20T18:41:53.534Z,9.21
2022-09-20T18:44:21.205Z,9.24
2022-09-20T18:46:48.401Z,9.21
2022-09-20T18:49:16.802Z,9.22
2022-09-20T18:51:44.806Z,9.22
2022-09-20T18:54:12.177Z,9.22
2022-09-20T18:56:43.742Z,9.19
2022-09-20T18:59:21.798Z,9.16
2022-09-20T19:02:08.924Z,9.19
2022-09-20T19:05:31.134Z,9.24
2022-09-20T19:08:30.057Z,9.15
2022-09-20T19:11:01.419Z,9.11
2022-09-20T19:13:44.916Z,9.08
2022-09-20T19:16:27.685Z,9.09
2022-09-20T19:19:29.611Z,9.15
2022-09-20T19:22:14.802Z,9.16
2022-09-20T19:25:07.740Z,9.19
2022-09-20T19:27:34.891Z,9.15
2022-09-20T19:30:01.911Z,9.14
2022-09-20T19:32:29.037Z,9.15
2022-09-20T19:34:57.235Z,9.16
2022-09-20T19:37:37.754Z,9.26
2022-09-20T19:40:35.682Z,9.21
2022-09-20T19:43:31.870Z,9.20
2022-09-20T19:46:32.113Z,9.22
2022-09-20T19:49:14.748Z,9.21
2022-09-20T19:51:44.157Z,9.20
2022-09-20T19:54:15.210Z,9.18
2022-09-20T19:57:01.973Z,9.14
2022-09-20T19:59:28.992Z,9.24
2022-09-20T20:01:56.590Z,9.20
2022-09-20T20:04:24.043Z,9.25
2022-09-20T20:07:22.066Z,9.15
2022-09-20T20:10:03.203Z,9.11
2022-09-20T20:13:34.871Z,9.05
2022-09-20T20:16:05.084Z,9.01
2022-09-20T20:19:06.297Z,8.96
2022-09-20T20:21:47.150Z,8.88
2022-09-20T20:24:32.766Z,8.87
2022-09-20T20:26:59.395Z,8.87
2022-09-20T20:29:25.945Z,8.83
2022-09-20T20:31:52.483Z,8.82
2022-09-20T20:34:20.553Z,8.87
2022-09-20T20:36:47.344Z,8.84
2022-09-20T20:39:14.158Z,8.87
2022-09-20T20:41:41.184Z,8.85
2022-09-20T20:44:07.740Z,8.87
2022-09-20T20:46:36.007Z,8.87
2022-09-20T20:49:03.703Z,8.90
2022-09-20T20:51:33.103Z,8.87
2022-09-20T20:53:59.874Z,8.91
2022-09-20T20:56:29.866Z,8.91
2022-09-20T20:59:01.089Z,8.88
2022-09-20T21:01:30.345Z,8.88
2022-09-20T21:03:58.554Z,8.86
2022-09-20T21:06:28.441Z,8.83
2022-09-20T21:08:55.032Z,8.86
2022-09-20T21:11:27.428Z,8.91
2022-09-20T21:13:57.184Z,8.93
2022-09-20T21:16:31.927Z,8.94
2022-09-20T21:18:58.737Z,8.96
2022-09-20T21:21:28.411Z,9.03
2022-09-20T21:23:56.914Z,9.03
2022-09-20T21:26:25.061Z,8.99
2022-09-20T21:28:53.883Z,9.02
2022-09-20T21:31:22.512Z,9.04
2022-09-20T21:33:49.826Z,8.98
2022-09-20T21:36:18.435Z,9.01
2022-09-20T21:38:45.937Z,9.05
2022-09-20T21:41:24.769Z,9.04
2022-09-20T21:43:56.022Z,9.04
2022-09-20T21:46:28.548Z,9.05
2022-09-20T21:48:55.970Z,8.98
2022-09-20T21:51:23.289Z,8.97
2022-09-20T21:53:53.027Z,8.95
2022-09-20T21:56:19.997Z,8.92
2022-09-20T21:58:46.837Z,8.90
2022-09-20T22:01:21.537Z,8.91
2022-09-20T22:03:54.900Z,8.92
2022-09-20T22:06:23.716Z,8.96
2022-09-20T22:09:01.755Z,8.97
2022-09-20T22:11:31.879Z,9.05
2022-09-20T22:13:59.373Z,9.13
2022-09-20T22:16:34.260Z,9.14
2022-09-20T22:19:01.229Z,9.14
2022-09-20T22:21:33.368Z,9.10
2022-09-20T22:24:02.690Z,9.09
2022-09-20T22:26:34.973Z,9.06
2022-09-20T22:29:02.851Z,9.05
2022-09-20T22:31:31.695Z,9.07
2022-09-20T22:34:03.942Z,9.04
2022-09-20T22:36:38.653Z,9.11
2022-09-20T22:39:07.492Z,9.08
2022-09-20T22:41:34.858Z,9.12
2022-09-20T22:44:01.797Z,9.12
2022-09-20T22:46:30.580Z,9.08
2022-09-20T22:48:57.611Z,9.05
2022-09-20T22:51:26.944Z,9.01
2022-09-20T22:53:54.028Z,8.99
2022-09-20T22:56:24.826Z,8.97
2022-09-20T22:58:53.997Z,8.99
2022-09-20T23:01:23.669Z,8.96
2022-09-20T23:04:01.860Z,8.93
2022-09-20T23:06:32.780Z,8.88
2022-09-20T23:09:01.377Z,8.89
2022-09-20T23:11:29.105Z,8.87
2022-09-20T23:13:58.545Z,8.80
2022-09-20T23:16:27.388Z,8.80
2022-09-20T23:18:54.999Z,8.82
2022-09-20T23:21:22.489Z,8.79
2022-09-20T23:23:56.701Z,8.84
2022-09-20T23:26:25.329Z,8.82
2022-09-20T23:29:00.641Z,8.81
2022-09-20T23:31:29.439Z,8.84
2022-09-20T23:34:01.389Z,8.82
2022-09-20T23:36:30.571Z,8.88
2022-09-20T23:38:57.129Z,8.86
2022-09-20T23:41:25.791Z,8.83
2022-09-20T23:43:52.889Z,8.84
2022-09-20T23:46:21.275Z,8.89
2022-09-20T23:48:48.167Z,8.92
2022-09-20T23:51:17.621Z,8.88
2022-09-20T23:53:44.931Z,8.86
2022-09-20T23:56:13.364Z,8.88
2022-09-20T23:58:41.625Z,8.80
